Terminal Aerodrome Forecast
Issued by NWS

Home | Current Version | Previous Version | Text Only | Print | Product List | Glossary On
Versions: 1 2 3 4 5 6 7 8 9 10 11 12 13 14 15 16 17 18 19 20 21 22 23 24 25 26 27 28 29 30 31 32 33 34 35 36 37 38
000
FTUS41 KBOX 062334
TAFACK
TAF
KACK 062334Z 0700/0724 08014G24KT P6SM BKN010
     FM070100 09013G23KT P6SM VCSH BKN008
     FM070300 09012G20KT 3SM -DZ BR OVC003
     FM071600 11010KT P6SM BKN003
     FM071800 13008KT P6SM BKN008
     FM072100 17007KT P6SM BKN008
     FM072300 20007KT 5SM BR BKN003=

USA.gov is the U.S. government's official web portal to all federal, state and local government web resources and services.